createdAt,value
2017-10-15T00:00:33.445Z,95.46
2017-10-15T00:02:26.432Z,95.27
2017-10-15T00:03:26.491Z,95.07
2017-10-15T00:05:19.499Z,95.07
2017-10-15T00:06:19.540Z,95.41
2017-10-15T00:08:12.549Z,94.93
2017-10-15T00:09:12.590Z,95.12
2017-10-15T00:11:06.084Z,94.93
2017-10-15T00:12:06.146Z,94.93
2017-10-15T00:13:59.162Z,94.93
2017-10-15T00:14:59.204Z,95.32
2017-10-15T00:16:52.194Z,94.93
2017-10-15T00:17:52.255Z,94.93
2017-10-15T00:19:45.270Z,95.22
2017-10-15T00:20:45.312Z,95.41
2017-10-15T00:22:38.302Z,95.12
2017-10-15T00:23:38.367Z,95.32
2017-10-15T00:25:31.372Z,94.93
2017-10-15T00:26:31.412Z,94.93
2017-10-15T00:28:24.430Z,95.12
2017-10-15T00:29:24.465Z,94.93
2017-10-15T00:31:17.455Z,94.93
2017-10-15T00:32:17.515Z,95.03
2017-10-15T00:34:10.528Z,94.93
2017-10-15T00:35:10.570Z,95.03
2017-10-15T00:37:03.559Z,95.22
2017-10-15T00:38:03.617Z,95.22
2017-10-15T00:39:56.629Z,95.12
2017-10-15T00:40:56.670Z,95.22
2017-10-15T00:42:49.660Z,95.22
2017-10-15T00:43:49.721Z,95.03
2017-10-15T00:45:42.726Z,95.32
2017-10-15T00:46:42.769Z,95.12
2017-10-15T00:48:35.778Z,95.22
2017-10-15T00:49:35.817Z,95.03
2017-10-15T00:51:28.809Z,95.03
2017-10-15T00:52:28.868Z,95.17
2017-10-15T00:54:21.877Z,95.17
2017-10-15T00:55:21.915Z,95.36
2017-10-15T00:57:14.903Z,94.93
2017-10-15T00:58:14.986Z,94.89
2017-10-15T01:00:07.977Z,95.22
2017-10-15T01:01:08.015Z,95.22
2017-10-15T01:03:01.009Z,94.89
2017-10-15T01:04:01.086Z,95.27
2017-10-15T01:05:54.082Z,95.36
2017-10-15T01:06:54.124Z,95.03
2017-10-15T01:08:47.135Z,95.32
2017-10-15T01:09:47.176Z,94.93
2017-10-15T01:11:40.670Z,94.98
2017-10-15T01:12:40.736Z,95.08
2017-10-15T01:14:33.740Z,95.36
2017-10-15T01:15:33.783Z,95.27
2017-10-15T01:17:26.771Z,95.27
2017-10-15T01:18:26.833Z,95.17
2017-10-15T01:20:19.843Z,94.98
2017-10-15T01:21:19.882Z,94.98
2017-10-15T01:23:12.885Z,95.08
2017-10-15T01:24:12.953Z,94.89
2017-10-15T01:26:05.942Z,94.98
2017-10-15T01:27:05.982Z,94.89
2017-10-15T01:28:58.989Z,94.93
2017-10-15T01:29:59.030Z,95.17
2017-10-15T01:31:52.020Z,94.89
2017-10-15T01:32:52.077Z,95.17
2017-10-15T01:34:45.091Z,95.17
2017-10-15T01:35:45.126Z,95.17
2017-10-15T01:37:38.111Z,95.08
2017-10-15T01:38:38.173Z,94.89
2017-10-15T01:40:31.182Z,95.36
2017-10-15T01:41:31.222Z,95.27
2017-10-15T01:43:24.214Z,94.89
2017-10-15T01:44:24.273Z,94.98
2017-10-15T01:46:17.283Z,95.84
2017-10-15T01:47:17.324Z,95.65
2017-10-15T01:49:10.334Z,95.75
2017-10-15T01:50:10.376Z,95.27
2017-10-15T01:52:03.364Z,95.65
2017-10-15T01:53:03.422Z,95.36
2017-10-15T01:54:56.429Z,95.79
2017-10-15T01:55:56.469Z,95.75
2017-10-15T01:57:49.460Z,95.79
2017-10-15T01:58:49.521Z,95.41
2017-10-15T02:00:42.563Z,95.84
2017-10-15T02:01:42.602Z,95.70
2017-10-15T02:03:35.591Z,95.94
2017-10-15T02:04:35.649Z,95.84
2017-10-15T02:06:28.659Z,94.98
2017-10-15T02:07:28.700Z,96.03
2017-10-15T02:09:21.710Z,95.70
2017-10-15T02:10:21.749Z,95.70
2017-10-15T02:12:14.740Z,95.65
2017-10-15T02:13:14.798Z,95.79
2017-10-15T02:15:07.805Z,95.08
2017-10-15T02:16:07.844Z,95.41
2017-10-15T02:18:00.845Z,95.36
2017-10-15T02:19:00.893Z,95.89
2017-10-15T02:20:53.900Z,95.89
2017-10-15T02:21:53.941Z,95.98
2017-10-15T02:23:46.931Z,95.89
2017-10-15T02:24:46.988Z,95.70
2017-10-15T02:26:39.996Z,95.51
2017-10-15T02:27:40.038Z,95.70
2017-10-15T02:29:33.050Z,95.51
2017-10-15T02:30:33.101Z,95.51
2017-10-15T02:32:26.082Z,95.61
2017-10-15T02:33:26.142Z,95.61
2017-10-15T02:35:19.149Z,95.51
2017-10-15T02:36:19.193Z,95.70
2017-10-15T02:38:12.178Z,95.51
2017-10-15T02:39:12.242Z,95.89
2017-10-15T02:41:05.249Z,95.89
2017-10-15T02:42:05.284Z,95.70
2017-10-15T02:43:58.272Z,95.89
2017-10-15T02:44:58.459Z,95.89
2017-10-15T02:46:51.341Z,96.03
2017-10-15T02:47:51.382Z,95.94
2017-10-15T02:49:44.393Z,95.61
2017-10-15T02:50:44.431Z,95.61
2017-10-15T02:52:37.419Z,95.22
2017-10-15T02:53:37.479Z,94.84
2017-10-15T02:55:30.484Z,94.84
2017-10-15T02:56:30.524Z,95.03
2017-10-15T02:58:23.513Z,94.74
2017-10-15T02:59:23.574Z,94.84
2017-10-15T03:01:16.579Z,95.03
2017-10-15T03:02:16.619Z,94.93
2017-10-15T03:04:09.610Z,95.22
2017-10-15T03:05:09.682Z,94.70
2017-10-15T03:07:02.680Z,95.08
2017-10-15T03:08:02.721Z,95.27
2017-10-15T03:09:55.728Z,95.65
2017-10-15T03:10:55.769Z,95.56
2017-10-15T03:12:48.758Z,95.84
2017-10-15T03:13:48.815Z,95.65
2017-10-15T03:15:41.822Z,95.56
2017-10-15T03:16:41.862Z,95.56
2017-10-15T03:18:34.851Z,95.56
2017-10-15T03:19:34.920Z,95.56
2017-10-15T03:21:27.915Z,96.03
2017-10-15T03:22:27.955Z,95.65
2017-10-15T03:24:20.944Z,95.65
2017-10-15T03:25:21.002Z,95.84
2017-10-15T03:27:14.008Z,95.84
2017-10-15T03:28:14.051Z,95.84
2017-10-15T03:30:07.058Z,96.03
2017-10-15T03:31:07.097Z,95.56
2017-10-15T03:33:00.087Z,95.56
2017-10-15T03:34:00.145Z,95.56
2017-10-15T03:35:53.150Z,95.56
2017-10-15T03:36:53.191Z,95.56
2017-10-15T03:38:46.181Z,95.27
2017-10-15T03:39:46.240Z,95.27
2017-10-15T03:41:39.253Z,95.56
2017-10-15T03:42:39.294Z,95.84
2017-10-15T03:44:32.282Z,95.75
2017-10-15T03:45:32.344Z,95.65
2017-10-15T03:47:25.350Z,95.84
2017-10-15T03:48:25.389Z,95.84
2017-10-15T03:50:18.395Z,95.84
2017-10-15T03:51:18.436Z,95.65
2017-10-15T03:53:11.419Z,94.74
2017-10-15T03:54:11.480Z,95.70
2017-10-15T03:56:04.487Z,94.84
2017-10-15T03:57:04.527Z,95.12
2017-10-15T03:58:57.517Z,95.79
2017-10-15T03:59:57.572Z,95.65
2017-10-15T04:01:50.579Z,95.56
2017-10-15T04:02:50.620Z,95.41
2017-10-15T04:04:43.605Z,95.79
2017-10-15T04:05:43.667Z,95.79
2017-10-15T04:07:36.673Z,95.79
2017-10-15T04:08:36.713Z,95.41
2017-10-15T04:10:29.722Z,95.51
2017-10-15T04:11:29.761Z,95.41
2017-10-15T04:13:22.756Z,95.51
2017-10-15T04:14:22.813Z,95.51
2017-10-15T04:16:15.822Z,95.46
2017-10-15T04:17:15.862Z,95.37
2017-10-15T04:19:08.869Z,95.08
2017-10-15T04:20:08.931Z,95.17
2017-10-15T04:22:01.939Z,94.79
2017-10-15T04:23:01.979Z,94.79
2017-10-15T04:24:54.966Z,94.98
2017-10-15T04:25:55.029Z,95.08
2017-10-15T04:27:48.030Z,94.70
2017-10-15T04:28:48.073Z,94.98
2017-10-15T04:30:41.076Z,94.79
2017-10-15T04:31:41.116Z,94.98
2017-10-15T04:33:34.101Z,94.70
2017-10-15T04:34:34.163Z,94.89
2017-10-15T04:36:27.167Z,94.98
2017-10-15T04:37:27.208Z,94.74
2017-10-15T04:39:20.205Z,95.12
2017-10-15T04:40:20.265Z,94.84
2017-10-15T04:42:13.273Z,94.93
2017-10-15T04:43:13.313Z,95.41
2017-10-15T04:45:06.806Z,94.74
2017-10-15T04:46:06.865Z,94.74
2017-10-15T04:47:59.871Z,95.32
2017-10-15T04:48:59.912Z,95.79
2017-10-15T04:50:52.922Z,95.79
2017-10-15T04:51:52.963Z,95.70
2017-10-15T04:53:45.951Z,95.70
2017-10-15T04:54:46.009Z,95.41
2017-10-15T04:56:39.012Z,95.41
2017-10-15T04:57:39.054Z,95.41
2017-10-15T04:59:32.042Z,95.51
2017-10-15T05:00:32.139Z,95.79
2017-10-15T05:02:25.123Z,95.51
2017-10-15T05:03:25.164Z,95.61
2017-10-15T05:05:18.187Z,95.79
2017-10-15T05:06:18.247Z,95.51
2017-10-15T05:08:11.289Z,94.93
2017-10-15T05:09:12.325Z,94.84
2017-10-15T05:11:05.248Z,95.03
2017-10-15T05:12:05.281Z,95.22
2017-10-15T05:13:58.285Z,95.65
2017-10-15T05:14:58.346Z,95.79
2017-10-15T05:16:51.403Z,95.56
2017-10-15T05:17:51.439Z,95.61
2017-10-15T05:19:44.631Z,95.61
2017-10-15T05:20:44.693Z,95.46
2017-10-15T05:22:37.763Z,95.61
2017-10-15T05:23:37.803Z,95.41
2017-10-15T05:25:32.975Z,95.17
2017-10-15T05:26:33.036Z,95.70
2017-10-15T05:28:26.041Z,95.36
2017-10-15T05:29:26.084Z,95.17
2017-10-15T05:31:19.085Z,95.46
2017-10-15T05:32:19.127Z,95.65
2017-10-15T05:34:12.115Z,95.46
2017-10-15T05:35:12.173Z,95.56
2017-10-15T05:37:05.179Z,95.51
2017-10-15T05:38:05.229Z,95.56
2017-10-15T05:39:58.207Z,95.79
2017-10-15T05:40:58.264Z,95.41
2017-10-15T05:42:51.270Z,95.51
2017-10-15T05:43:51.311Z,95.51
2017-10-15T05:45:44.310Z,95.46
2017-10-15T05:46:44.356Z,95.84
2017-10-15T05:48:37.363Z,95.94
2017-10-15T05:49:37.402Z,95.75
2017-10-15T05:51:30.406Z,96.17
2017-10-15T05:52:30.447Z,95.89
2017-10-15T05:54:23.436Z,96.27
2017-10-15T05:55:23.500Z,95.65
2017-10-15T05:57:16.502Z,95.61
2017-10-15T05:58:16.542Z,95.32
2017-10-15T06:00:09.531Z,95.22
2017-10-15T06:01:09.588Z,95.22
2017-10-15T06:03:02.594Z,95.70
2017-10-15T06:04:02.631Z,95.70
2017-10-15T06:05:55.621Z,95.41
2017-10-15T06:06:55.677Z,95.70
2017-10-15T06:08:48.684Z,95.41
2017-10-15T06:09:48.724Z,95.22
2017-10-15T06:11:41.735Z,95.89
2017-10-15T06:12:41.775Z,95.89
2017-10-15T06:14:34.764Z,95.22
2017-10-15T06:15:34.821Z,95.94
2017-10-15T06:17:27.829Z,95.41
2017-10-15T06:18:27.869Z,95.22
2017-10-15T06:20:20.863Z,95.84
2017-10-15T06:21:20.914Z,95.79
2017-10-15T06:23:13.922Z,95.27
2017-10-15T06:24:13.963Z,95.32
2017-10-15T06:26:06.950Z,95.70
2017-10-15T06:27:07.008Z,95.70
2017-10-15T06:29:00.015Z,95.70
2017-10-15T06:30:00.054Z,95.70
2017-10-15T06:31:53.059Z,96.27
2017-10-15T06:32:53.108Z,96.27
2017-10-15T06:34:46.087Z,95.41
2017-10-15T06:35:46.148Z,95.12
2017-10-15T06:37:39.151Z,95.98
2017-10-15T06:38:39.197Z,95.41
2017-10-15T06:40:32.196Z,95.32
2017-10-15T06:41:32.250Z,95.41
2017-10-15T06:43:25.280Z,95.32
2017-10-15T06:44:25.325Z,95.61
2017-10-15T06:46:19.855Z,95.70
2017-10-15T06:47:19.914Z,95.70
2017-10-15T06:49:12.919Z,95.70
2017-10-15T06:50:12.963Z,95.70
2017-10-15T06:52:05.966Z,95.61
2017-10-15T06:53:06.006Z,95.84
2017-10-15T06:54:59.006Z,95.37
2017-10-15T06:55:59.067Z,95.46
2017-10-15T06:57:52.074Z,95.56
2017-10-15T06:58:52.113Z,95.56
2017-10-15T07:00:45.103Z,95.56
2017-10-15T07:01:45.188Z,95.65
2017-10-15T07:03:38.169Z,95.46
2017-10-15T07:04:38.230Z,95.27
2017-10-15T07:06:31.201Z,95.65
2017-10-15T07:07:31.254Z,95.46
2017-10-15T07:09:24.272Z,95.84
2017-10-15T07:10:24.305Z,96.03
2017-10-15T07:12:17.310Z,95.27
2017-10-15T07:13:17.351Z,95.46
2017-10-15T07:15:10.341Z,95.79
2017-10-15T07:16:10.395Z,95.98
2017-10-15T07:18:03.403Z,95.98
2017-10-15T07:19:03.442Z,95.61
2017-10-15T07:20:56.427Z,96.03
2017-10-15T07:21:56.489Z,95.70
2017-10-15T07:23:49.495Z,90.42
2017-10-15T07:24:49.536Z,88.98
2017-10-15T07:26:42.527Z,85.55
2017-10-15T07:27:42.587Z,84.25
2017-10-15T07:29:35.596Z,82.79
2017-10-15T07:30:35.639Z,81.29
2017-10-15T07:32:28.653Z,79.60
2017-10-15T07:33:28.695Z,79.06
2017-10-15T07:35:21.690Z,77.36
2017-10-15T07:36:21.772Z,76.43
2017-10-15T07:38:14.782Z,75.89
2017-10-15T07:39:14.828Z,73.86
2017-10-15T07:41:07.862Z,74.21
2017-10-15T07:42:07.898Z,74.35
2017-10-15T07:44:00.931Z,73.77
2017-10-15T07:45:01.010Z,73.19
2017-10-15T07:46:53.995Z,72.61
2017-10-15T07:47:54.031Z,73.09
2017-10-15T07:49:47.054Z,73.19
2017-10-15T07:50:47.095Z,73.71
2017-10-15T07:52:40.122Z,72.10
2017-10-15T07:53:40.173Z,69.92
2017-10-15T07:55:33.169Z,67.43
2017-10-15T07:56:33.257Z,67.82
2017-10-15T07:58:26.253Z,67.33
2017-10-15T07:59:26.324Z,66.47
2017-10-15T08:01:19.316Z,66.40
2017-10-15T08:02:19.379Z,66.56
2017-10-15T08:04:12.423Z,67.43
2017-10-15T08:05:12.469Z,65.14
2017-10-15T08:07:05.480Z,64.89
2017-10-15T08:08:05.605Z,63.46
2017-10-15T08:09:58.586Z,63.04
2017-10-15T08:10:58.628Z,64.01
2017-10-15T08:12:51.688Z,66.56
2017-10-15T08:13:51.678Z,66.37
2017-10-15T08:15:44.667Z,65.79
2017-10-15T08:16:44.732Z,66.47
2017-10-15T08:18:37.747Z,64.85
2017-10-15T08:19:37.793Z,64.56
2017-10-15T08:21:30.812Z,66.56
2017-10-15T08:22:30.874Z,67.24
2017-10-15T08:24:23.884Z,65.72
2017-10-15T08:25:23.932Z,64.53
2017-10-15T08:27:16.940Z,64.56
2017-10-15T08:28:17.026Z,64.95
2017-10-15T08:30:10.036Z,64.95
2017-10-15T08:31:10.070Z,65.75
2017-10-15T08:33:03.101Z,64.62
2017-10-15T08:34:03.274Z,67.59
2017-10-15T08:35:56.149Z,70.62
2017-10-15T08:36:56.223Z,71.10
2017-10-15T08:38:49.236Z,70.90
2017-10-15T08:39:49.284Z,70.46
2017-10-15T08:41:42.339Z,69.72
2017-10-15T08:42:42.349Z,68.40
2017-10-15T08:44:35.880Z,68.59
2017-10-15T08:45:35.924Z,68.01
2017-10-15T08:47:28.926Z,68.62
2017-10-15T08:48:29.055Z,69.84
2017-10-15T08:50:22.021Z,72.24
2017-10-15T08:51:22.067Z,69.24
2017-10-15T08:53:15.104Z,70.34
2017-10-15T08:54:15.152Z,69.95
2017-10-15T08:56:08.149Z,70.30
2017-10-15T08:57:08.256Z,72.45
2017-10-15T08:59:01.236Z,77.05
2017-10-15T09:00:01.282Z,77.40
2017-10-15T09:01:54.281Z,80.89
2017-10-15T09:02:54.345Z,81.43
2017-10-15T09:04:47.365Z,83.56
2017-10-15T09:05:47.409Z,83.48
2017-10-15T09:07:40.406Z,85.75
2017-10-15T09:08:40.471Z,86.80
2017-10-15T09:10:33.491Z,86.76
2017-10-15T09:11:33.535Z,87.05
2017-10-15T09:13:26.556Z,87.15
2017-10-15T09:14:26.602Z,87.19
2017-10-15T09:16:19.609Z,87.05
2017-10-15T09:17:19.661Z,86.91
2017-10-15T09:19:12.682Z,87.96
2017-10-15T09:20:12.728Z,88.35
2017-10-15T09:22:05.721Z,89.16
2017-10-15T09:23:05.786Z,88.30
2017-10-15T09:24:58.810Z,88.20
2017-10-15T09:25:58.850Z,87.92
2017-10-15T09:27:51.846Z,88.01
2017-10-15T09:28:51.914Z,88.24
2017-10-15T09:30:44.929Z,88.15
2017-10-15T09:31:44.971Z,89.11
2017-10-15T09:33:37.987Z,88.15
2017-10-15T09:34:38.031Z,87.96
2017-10-15T09:36:31.028Z,87.29
2017-10-15T09:37:31.090Z,88.34
2017-10-15T09:39:24.113Z,87.48
2017-10-15T09:40:24.154Z,87.67
2017-10-15T09:42:17.149Z,88.06
2017-10-15T09:43:17.219Z,87.57
2017-10-15T09:45:10.741Z,89.11
2017-10-15T09:46:10.776Z,87.96
2017-10-15T09:48:03.773Z,88.15
2017-10-15T09:49:03.839Z,88.00
2017-10-15T09:50:56.857Z,87.33
2017-10-15T09:51:56.925Z,88.29
2017-10-15T09:53:49.932Z,87.13
2017-10-15T09:54:49.960Z,86.27
2017-10-15T09:56:42.961Z,87.52
2017-10-15T09:57:43.018Z,88.39
2017-10-15T09:59:36.034Z,87.81
2017-10-15T10:00:36.077Z,88.10
2017-10-15T10:02:29.085Z,88.14
2017-10-15T10:03:29.145Z,86.79
2017-10-15T10:05:22.177Z,87.37
2017-10-15T10:06:22.229Z,88.33
2017-10-15T10:08:15.210Z,88.24
2017-10-15T10:09:15.271Z,86.41
2017-10-15T10:11:08.287Z,88.43
2017-10-15T10:12:08.330Z,87.37
2017-10-15T10:14:01.350Z,87.08
2017-10-15T10:15:01.409Z,86.22
2017-10-15T10:16:54.393Z,86.22
2017-10-15T10:17:54.459Z,85.74
2017-10-15T10:19:47.482Z,85.74
2017-10-15T10:20:47.521Z,86.69
2017-10-15T10:22:40.518Z,85.35
2017-10-15T10:23:40.595Z,86.79
2017-10-15T10:25:45.253Z,86.26
2017-10-15T10:26:45.282Z,86.26
2017-10-15T10:28:38.337Z,87.22
2017-10-15T10:29:38.401Z,86.93
2017-10-15T10:31:31.430Z,85.97
2017-10-15T10:32:31.480Z,85.39
2017-10-15T10:34:24.544Z,85.00
2017-10-15T10:35:24.577Z,86.74
2017-10-15T10:37:17.694Z,85.87
2017-10-15T10:38:17.682Z,85.10
2017-10-15T10:40:10.650Z,85.43
2017-10-15T10:41:10.694Z,84.66
2017-10-15T10:43:03.692Z,84.86
2017-10-15T10:44:03.754Z,84.76
2017-10-15T10:45:56.769Z,84.38
2017-10-15T10:46:56.816Z,84.18
2017-10-15T10:48:49.809Z,84.22
2017-10-15T10:49:49.873Z,83.84
2017-10-15T10:51:42.890Z,84.99
2017-10-15T10:52:42.934Z,84.03
2017-10-15T10:54:35.952Z,84.32
2017-10-15T10:55:35.997Z,83.45
2017-10-15T10:57:28.994Z,84.61
2017-10-15T10:58:29.060Z,83.07
2017-10-15T11:00:22.074Z,84.03
2017-10-15T11:01:22.122Z,83.45
2017-10-15T11:03:15.115Z,83.26
2017-10-15T11:04:15.186Z,83.26
2017-10-15T11:06:08.192Z,84.12
2017-10-15T11:07:08.237Z,83.07
2017-10-15T11:09:01.257Z,83.01
2017-10-15T11:10:01.300Z,83.11
2017-10-15T11:11:54.318Z,84.07
2017-10-15T11:12:54.360Z,84.17
2017-10-15T11:14:47.384Z,82.92
2017-10-15T11:15:47.421Z,82.43
2017-10-15T11:17:40.418Z,82.14
2017-10-15T11:18:40.483Z,81.80
2017-10-15T11:20:33.502Z,81.12
2017-10-15T11:21:33.549Z,82.09
2017-10-15T11:23:26.543Z,81.70
2017-10-15T11:24:26.608Z,81.80
2017-10-15T11:26:19.649Z,80.45
2017-10-15T11:27:19.693Z,80.54
2017-10-15T11:29:12.690Z,80.83
2017-10-15T11:30:12.755Z,80.45
2017-10-15T11:32:05.821Z,81.02
2017-10-15T11:33:05.867Z,81.12
2017-10-15T11:34:58.884Z,81.22
2017-10-15T11:35:58.930Z,82.38
2017-10-15T11:37:51.925Z,81.41
2017-10-15T11:38:51.993Z,80.74
2017-10-15T11:40:45.033Z,80.74
2017-10-15T11:41:45.071Z,80.49
2017-10-15T11:43:38.052Z,80.39
2017-10-15T11:44:38.115Z,81.35
2017-10-15T11:46:31.132Z,81.22
2017-10-15T11:47:31.175Z,80.78
2017-10-15T11:49:24.170Z,79.33
2017-10-15T11:50:24.248Z,80.10
2017-10-15T11:52:17.276Z,79.14
2017-10-15T11:53:17.341Z,80.10
2017-10-15T11:55:10.356Z,79.91
2017-10-15T11:56:10.391Z,78.66
2017-10-15T11:58:15.021Z,79.43
2017-10-15T11:59:15.124Z,78.85
2017-10-15T12:01:08.083Z,79.14
2017-10-15T12:02:08.134Z,79.81
2017-10-15T12:04:01.133Z,78.85
2017-10-15T12:05:01.206Z,78.75
2017-10-15T12:07:09.794Z,79.81
2017-10-15T12:08:09.896Z,78.46
2017-10-15T12:10:02.877Z,78.46
2017-10-15T12:11:02.928Z,79.52
2017-10-15T12:12:55.987Z,78.08
2017-10-15T12:13:56.086Z,78.17
2017-10-15T12:15:49.052Z,78.36
2017-10-15T12:16:49.102Z,79.43
2017-10-15T12:18:42.095Z,78.46
2017-10-15T12:19:42.163Z,77.98
2017-10-15T12:21:35.180Z,78.02
2017-10-15T12:22:35.225Z,77.59
2017-10-15T12:24:28.225Z,77.92
2017-10-15T12:25:28.287Z,78.31
2017-10-15T12:27:21.312Z,77.34
2017-10-15T12:28:21.356Z,76.76
2017-10-15T12:30:14.380Z,76.47
2017-10-15T12:31:14.422Z,76.67
2017-10-15T12:33:07.420Z,76.57
2017-10-15T12:34:07.488Z,76.86
2017-10-15T12:36:00.509Z,75.60
2017-10-15T12:37:00.557Z,76.57
2017-10-15T12:38:53.556Z,77.57
2017-10-15T12:39:53.628Z,76.86
2017-10-15T12:41:46.648Z,75.31
2017-10-15T12:42:46.693Z,75.70
2017-10-15T12:44:39.695Z,75.89
2017-10-15T12:45:39.772Z,75.79
2017-10-15T12:47:32.779Z,75.70
2017-10-15T12:48:32.861Z,77.34
2017-10-15T12:50:25.878Z,75.89
2017-10-15T12:51:25.888Z,75.41
2017-10-15T12:53:18.884Z,75.31
2017-10-15T12:54:18.951Z,73.96
2017-10-15T12:56:11.971Z,74.54
2017-10-15T12:57:12.035Z,75.60
2017-10-15T12:59:05.018Z,74.10
2017-10-15T13:00:05.106Z,74.58
2017-10-15T13:01:58.104Z,73.90
2017-10-15T13:02:58.150Z,75.16
2017-10-15T13:04:51.161Z,73.58
2017-10-15T13:05:51.234Z,75.51
2017-10-15T13:07:44.245Z,74.06
2017-10-15T13:08:44.290Z,73.61
2017-10-15T13:10:37.315Z,72.26
2017-10-15T13:11:37.357Z,69.17
2017-10-15T13:13:30.356Z,71.20
2017-10-15T13:14:30.423Z,71.88
2017-10-15T13:16:23.460Z,71.39
2017-10-15T13:17:24.444Z,71.39
2017-10-15T13:19:16.500Z,71.30
2017-10-15T13:20:16.567Z,72.55
2017-10-15T13:22:09.607Z,71.68
2017-10-15T13:23:09.631Z,71.30
2017-10-15T13:25:02.634Z,71.20
2017-10-15T13:26:02.696Z,72.84
2017-10-15T13:27:56.228Z,73.13
2017-10-15T13:28:56.268Z,71.97
2017-10-15T13:30:49.289Z,71.58
2017-10-15T13:31:49.333Z,71.20
2017-10-15T13:33:42.333Z,70.32
2017-10-15T13:34:42.401Z,71.39
2017-10-15T13:36:35.418Z,71.10
2017-10-15T13:37:35.465Z,70.42
2017-10-15T13:39:40.212Z,70.14
2017-10-15T13:40:40.275Z,70.23
2017-10-15T13:42:37.297Z,69.36
2017-10-15T13:43:37.339Z,68.68
2017-10-15T13:45:30.339Z,68.98
2017-10-15T13:46:30.407Z,69.46
2017-10-15T13:48:23.429Z,69.84
2017-10-15T13:49:23.470Z,68.68
2017-10-15T13:51:16.491Z,70.32
2017-10-15T13:52:16.535Z,70.14
2017-10-15T13:54:09.532Z,71.10
2017-10-15T13:55:09.599Z,69.26
2017-10-15T13:57:02.618Z,71.00
2017-10-15T13:58:02.665Z,68.30
2017-10-15T13:59:55.663Z,67.62
2017-10-15T14:00:55.730Z,68.40
2017-10-15T14:02:48.748Z,67.33
2017-10-15T14:03:48.795Z,67.04
2017-10-15T14:05:41.801Z,68.01
2017-10-15T14:06:41.859Z,67.91
2017-10-15T14:08:34.880Z,69.65
2017-10-15T14:09:34.924Z,68.46
2017-10-15T14:11:27.951Z,67.59
2017-10-15T14:12:27.995Z,67.62
2017-10-15T14:14:20.997Z,68.17
2017-10-15T14:15:21.082Z,70.81
2017-10-15T14:17:14.104Z,70.10
2017-10-15T14:18:14.149Z,71.74
2017-10-15T14:20:07.151Z,68.46
2017-10-15T14:21:07.259Z,70.97
2017-10-15T14:23:00.272Z,70.20
2017-10-15T14:24:00.281Z,71.26
2017-10-15T14:25:53.285Z,69.81
2017-10-15T14:26:53.357Z,69.62
2017-10-15T14:28:46.373Z,68.59
2017-10-15T14:29:46.417Z,68.40
2017-10-15T14:31:39.444Z,68.26
2017-10-15T14:32:39.490Z,67.30
2017-10-15T14:34:32.482Z,69.04
2017-10-15T14:35:32.548Z,69.32
2017-10-15T14:37:25.567Z,69.32
2017-10-15T14:38:25.613Z,67.97
2017-10-15T14:40:19.121Z,69.04
2017-10-15T14:41:19.187Z,70.29
2017-10-15T14:43:12.227Z,69.13
2017-10-15T14:44:12.255Z,68.94
2017-10-15T14:46:05.245Z,70.10
2017-10-15T14:47:05.313Z,69.81
2017-10-15T14:48:58.333Z,68.36
2017-10-15T14:49:58.382Z,69.81
2017-10-15T14:51:51.399Z,69.32
2017-10-15T14:52:51.445Z,69.78
2017-10-15T14:54:44.440Z,72.61
2017-10-15T14:55:44.510Z,70.06
2017-10-15T14:57:37.531Z,69.87
2017-10-15T14:58:37.579Z,69.49
2017-10-15T15:00:30.576Z,70.45
2017-10-15T15:01:30.644Z,70.64
2017-10-15T15:03:23.663Z,70.94
2017-10-15T15:04:23.709Z,71.22
2017-10-15T15:06:16.707Z,72.38
2017-10-15T15:07:16.775Z,71.90
2017-10-15T15:09:09.792Z,72.96
2017-10-15T15:10:09.839Z,72.19
2017-10-15T15:12:02.858Z,72.58
2017-10-15T15:13:02.902Z,72.19
2017-10-15T15:14:55.898Z,72.19
2017-10-15T15:15:55.965Z,72.77
2017-10-15T15:17:48.984Z,74.60
2017-10-15T15:18:49.029Z,74.37
2017-10-15T15:20:42.026Z,73.69
2017-10-15T15:21:42.099Z,74.47
2017-10-15T15:23:35.117Z,74.27
2017-10-15T15:24:35.156Z,75.43
2017-10-15T15:26:28.155Z,74.85
2017-10-15T15:27:28.227Z,74.47
2017-10-15T15:29:21.296Z,75.53
2017-10-15T15:30:21.290Z,75.62
2017-10-15T15:32:14.305Z,75.30
2017-10-15T15:33:14.353Z,75.24
2017-10-15T15:35:07.355Z,75.43
2017-10-15T15:36:07.424Z,75.59
2017-10-15T15:38:00.438Z,75.43
2017-10-15T15:39:00.485Z,75.53
2017-10-15T15:40:53.481Z,75.34
2017-10-15T15:41:53.548Z,75.30
2017-10-15T15:43:46.569Z,75.49
2017-10-15T15:44:46.616Z,76.07
2017-10-15T15:46:39.611Z,76.07
2017-10-15T15:47:39.677Z,77.42
2017-10-15T15:49:32.714Z,77.42
2017-10-15T15:50:32.747Z,76.75
2017-10-15T15:52:25.763Z,76.45
2017-10-15T15:53:25.811Z,76.65
2017-10-15T15:55:18.807Z,77.51
2017-10-15T15:56:18.873Z,78.48
2017-10-15T15:58:11.893Z,80.08
2017-10-15T15:59:11.939Z,80.46
2017-10-15T16:01:04.938Z,81.20
2017-10-15T16:02:05.004Z,82.59
2017-10-15T16:03:58.024Z,83.03
2017-10-15T16:04:58.069Z,81.20
2017-10-15T16:06:51.069Z,83.61
2017-10-15T16:07:51.136Z,83.12
2017-10-15T16:09:44.152Z,82.16
2017-10-15T16:10:44.200Z,83.18
2017-10-15T16:12:37.233Z,83.85
2017-10-15T16:13:37.261Z,84.23
2017-10-15T16:15:30.259Z,85.00
2017-10-15T16:16:30.326Z,84.87
2017-10-15T16:18:23.342Z,85.35
2017-10-15T16:19:23.388Z,85.35
2017-10-15T16:21:16.388Z,86.69
2017-10-15T16:22:16.452Z,87.37
2017-10-15T16:24:09.475Z,88.10
2017-10-15T16:25:09.518Z,88.00
2017-10-15T16:27:02.519Z,88.39
2017-10-15T16:28:02.586Z,87.33
2017-10-15T16:29:55.603Z,88.63
2017-10-15T16:30:55.647Z,88.53
2017-10-15T16:32:48.662Z,89.21
2017-10-15T16:33:48.710Z,89.11
2017-10-15T16:35:41.703Z,89.74
2017-10-15T16:36:41.770Z,89.45
2017-10-15T16:38:34.785Z,89.54
2017-10-15T16:39:34.830Z,89.54
2017-10-15T16:41:27.826Z,89.74
2017-10-15T16:42:27.891Z,89.83
2017-10-15T16:44:20.913Z,89.79
2017-10-15T16:45:20.959Z,89.98
2017-10-15T16:47:13.971Z,90.17
2017-10-15T16:48:14.021Z,90.08
2017-10-15T16:50:07.036Z,90.27
2017-10-15T16:51:07.080Z,89.98
2017-10-15T16:53:00.123Z,90.13
2017-10-15T16:54:00.142Z,91.19
2017-10-15T16:55:53.138Z,90.70
2017-10-15T16:56:53.205Z,90.70
2017-10-15T16:58:46.220Z,90.99
2017-10-15T16:59:46.263Z,90.61
2017-10-15T17:01:50.489Z,90.80
2017-10-15T17:02:50.583Z,90.99
2017-10-15T17:04:43.599Z,90.52
2017-10-15T17:05:43.600Z,90.32
2017-10-15T17:07:36.710Z,90.13
2017-10-15T17:08:36.642Z,90.32
2017-10-15T17:10:29.673Z,90.85
2017-10-15T17:11:29.703Z,90.90
2017-10-15T17:13:22.722Z,90.61
2017-10-15T17:14:22.912Z,90.47
2017-10-15T17:16:28.228Z,90.95
2017-10-15T17:17:28.233Z,91.24
2017-10-15T17:19:21.240Z,91.52
2017-10-15T17:20:21.324Z,91.19
2017-10-15T17:22:14.315Z,91.96
2017-10-15T17:23:14.516Z,92.05
2017-10-15T17:25:07.530Z,92.05
2017-10-15T17:26:07.509Z,91.96
2017-10-15T17:28:00.512Z,92.05
2017-10-15T17:29:00.551Z,91.86
2017-10-15T17:30:53.567Z,92.05
2017-10-15T17:31:53.607Z,91.86
2017-10-15T17:33:46.573Z,91.67
2017-10-15T17:34:46.641Z,91.86
2017-10-15T17:36:40.499Z,91.86
2017-10-15T17:37:40.574Z,91.86
2017-10-15T17:39:33.682Z,91.38
2017-10-15T17:40:33.610Z,92.01
2017-10-15T17:42:26.603Z,91.91
2017-10-15T17:43:26.682Z,92.30
2017-10-15T17:45:19.684Z,92.49
2017-10-15T17:46:19.728Z,92.49
2017-10-15T17:48:12.759Z,92.39
2017-10-15T17:49:12.839Z,92.30
2017-10-15T17:51:05.801Z,92.68
2017-10-15T17:52:05.856Z,92.58
2017-10-15T17:53:58.886Z,92.10
2017-10-15T17:54:58.923Z,92.77
2017-10-15T17:56:51.944Z,92.49
2017-10-15T17:57:52.000Z,92.58
2017-10-15T17:59:45.032Z,92.30
2017-10-15T18:00:45.042Z,92.73
2017-10-15T18:02:38.038Z,92.58
2017-10-15T18:03:38.115Z,92.58
2017-10-15T18:05:31.117Z,92.39
2017-10-15T18:06:31.155Z,92.54
2017-10-15T18:08:24.192Z,92.54
2017-10-15T18:09:24.227Z,92.44
2017-10-15T18:11:17.250Z,93.40
2017-10-15T18:12:17.305Z,92.82
2017-10-15T18:14:10.322Z,92.92
2017-10-15T18:15:10.341Z,92.82
2017-10-15T18:17:03.840Z,92.82
2017-10-15T18:18:03.907Z,93.02
2017-10-15T18:19:56.916Z,93.02
2017-10-15T18:20:56.960Z,92.92
2017-10-15T18:22:49.951Z,93.07
2017-10-15T18:23:50.015Z,93.11
2017-10-15T18:25:43.033Z,92.92
2017-10-15T18:26:43.077Z,92.92
2017-10-15T18:28:36.089Z,92.82
2017-10-15T18:29:36.149Z,92.87
2017-10-15T18:31:29.125Z,93.40
2017-10-15T18:32:29.188Z,92.87
2017-10-15T18:34:22.204Z,92.78
2017-10-15T18:35:22.248Z,93.11